createdAt,value
2019-05-11T04:31:35.388Z,19.90
2019-05-11T05:46:42.586Z,20.00
2019-05-11T06:32:42.049Z,19.91
2019-05-11T06:41:41.953Z,19.91
2019-05-11T08:23:09.173Z,20.23
2019-05-11T08:44:09.075Z,20.31
2019-05-11T09:31:34.407Z,20.52
2019-05-11T09:32:34.395Z,20.45
2019-05-11T10:20:18.430Z,20.35
2019-05-11T11:21:40.209Z,20.31
2019-05-11T12:40:23.425Z,21.76
2019-05-11T13:00:23.196Z,21.85
2019-05-11T13:17:34.937Z,21.93
2019-05-11T13:23:45.416Z,21.66
2019-05-11T13:25:45.408Z,21.71
2019-05-11T13:26:45.385Z,21.59
2019-05-11T13:27:45.369Z,21.61
2019-05-11T13:37:47.919Z,21.74
2019-05-11T13:38:45.489Z,21.72
2019-05-11T13:39:45.230Z,21.60
2019-05-11T13:40:45.226Z,21.66
2019-05-11T13:42:45.201Z,21.63
2019-05-11T13:44:45.180Z,21.59
2019-05-11T13:47:52.617Z,21.59
2019-05-11T13:49:08.576Z,21.59
2019-05-11T13:50:07.869Z,21.53
2019-05-11T13:51:08.787Z,21.60
2019-05-11T13:52:08.590Z,21.57
2019-05-11T13:59:07.456Z,21.56
2019-05-11T14:02:10.666Z,21.56
2019-05-11T14:04:08.496Z,21.51
2019-05-11T14:06:08.742Z,21.53
2019-05-11T14:07:08.085Z,21.54
2019-05-11T14:08:08.119Z,21.57
2019-05-11T14:09:07.876Z,21.61
2019-05-11T14:10:08.039Z,21.63
2019-05-11T14:11:08.595Z,21.60
2019-05-11T14:12:07.837Z,21.57
2019-05-11T14:14:07.772Z,21.72
2019-05-11T14:15:08.550Z,21.78
2019-05-11T14:16:07.990Z,21.82
2019-05-11T14:17:08.317Z,21.78
2019-05-11T14:18:09.417Z,21.75
2019-05-11T14:19:08.695Z,21.83
2019-05-11T14:20:08.847Z,21.72
2019-05-11T14:21:08.022Z,21.83
2019-05-11T14:22:08.632Z,21.83
2019-05-11T14:23:07.862Z,21.81
2019-05-11T14:24:07.760Z,21.85
2019-05-11T14:26:08.431Z,21.87
2019-05-11T14:27:08.522Z,21.87
2019-05-11T14:28:08.870Z,21.87
2019-05-11T14:29:08.517Z,21.90
2019-05-11T14:30:08.574Z,21.93
2019-05-11T14:31:08.248Z,21.93
2019-05-11T14:32:08.548Z,21.94
2019-05-11T14:35:11.894Z,21.94
2019-05-11T14:36:08.589Z,22.00
2019-05-11T14:37:08.847Z,21.98
2019-05-11T14:38:08.015Z,22.01
2019-05-11T14:39:08.413Z,21.98
2019-05-11T14:40:08.767Z,21.96
2019-05-11T14:41:07.767Z,21.98
2019-05-11T14:42:07.723Z,21.93
2019-05-11T14:43:08.427Z,21.97
2019-05-11T14:44:08.791Z,21.96
2019-05-11T14:45:08.438Z,21.87
2019-05-11T14:46:08.613Z,21.90
2019-05-11T14:47:08.493Z,21.89
2019-05-11T14:48:22.546Z,21.90
2019-05-11T14:49:28.546Z,21.94
2019-05-11T14:50:28.536Z,21.90
2019-05-11T14:51:28.523Z,21.90
2019-05-11T14:52:28.526Z,21.91
2019-05-11T14:53:28.497Z,21.90
2019-05-11T14:54:28.992Z,21.90
2019-05-11T14:55:29.095Z,21.91
2019-05-11T14:56:28.466Z,21.93
2019-05-11T14:57:28.458Z,21.82
2019-05-11T14:58:28.440Z,21.93
2019-05-11T14:59:28.749Z,21.90
2019-05-11T15:14:55.362Z,21.35
2019-05-11T15:15:55.356Z,21.34
2019-05-11T15:16:57.525Z,21.30
2019-05-11T15:17:57.932Z,21.34
2019-05-11T15:18:55.327Z,21.17
2019-05-11T15:19:55.316Z,21.27
2019-05-11T15:20:55.298Z,21.27
2019-05-11T15:21:55.285Z,21.27
2019-05-11T15:22:55.279Z,21.26
2019-05-11T15:23:55.269Z,21.23
2019-05-11T15:24:55.259Z,21.30
2019-05-11T15:25:55.245Z,21.17
2019-05-11T15:26:57.478Z,21.13
2019-05-11T15:27:55.209Z,21.21
2019-05-11T15:28:55.205Z,21.21
2019-05-11T15:29:55.193Z,21.17
2019-05-11T15:30:55.181Z,21.17
2019-05-11T15:31:55.190Z,21.17
2019-05-11T15:32:55.162Z,21.19
2019-05-11T15:33:57.589Z,21.23
2019-05-11T15:34:55.140Z,21.17
2019-05-11T15:35:55.118Z,21.13
2019-05-11T15:36:55.105Z,21.17
2019-05-11T15:37:55.103Z,21.17
2019-05-11T15:38:55.088Z,21.21
2019-05-11T15:39:55.084Z,21.17
2019-05-11T15:40:55.067Z,21.20
2019-05-11T15:42:07.259Z,21.15
2019-05-11T15:43:17.968Z,21.24
2019-05-11T15:44:18.238Z,21.17
2019-05-11T15:45:18.685Z,21.08
2019-05-11T15:46:19.437Z,21.15
2019-05-11T15:47:17.221Z,21.10
2019-05-11T15:48:18.633Z,21.20
2019-05-11T15:49:17.952Z,21.17
2019-05-11T15:50:19.041Z,21.12
2019-05-11T15:51:18.794Z,21.15
2019-05-11T15:52:18.819Z,21.08
2019-05-11T15:53:17.845Z,21.21
2019-05-11T15:54:18.552Z,21.08
2019-05-11T15:55:18.802Z,21.08
2019-05-11T15:56:19.057Z,21.08
2019-05-11T15:57:17.935Z,21.12
2019-05-11T15:58:21.479Z,21.10
2019-05-11T15:59:17.084Z,21.08
2019-05-11T16:00:17.111Z,21.13
2019-05-11T16:01:18.637Z,21.12
2019-05-11T16:02:17.999Z,21.12
2019-05-11T16:03:18.677Z,21.07
2019-05-11T16:04:18.109Z,21.07
2019-05-11T16:05:18.235Z,21.12
2019-05-11T16:06:18.554Z,21.08
2019-05-11T16:07:18.737Z,21.15
2019-05-11T16:08:18.794Z,21.13
2019-05-11T16:09:18.406Z,21.23
2019-05-11T16:10:18.714Z,21.20
2019-05-11T16:11:18.095Z,21.23
2019-05-11T16:12:18.199Z,21.20
2019-05-11T16:13:18.090Z,21.20
2019-05-11T16:14:16.914Z,21.21
2019-05-11T16:15:19.191Z,21.20
2019-05-11T16:16:16.896Z,21.21
2019-05-11T16:17:16.926Z,21.13
2019-05-11T16:18:18.886Z,21.15
2019-05-11T16:19:19.135Z,21.07
2019-05-11T16:20:18.067Z,21.04
2019-05-11T16:21:18.134Z,21.13
2019-05-11T16:22:20.889Z,21.07
2019-05-11T16:23:17.520Z,21.13
2019-05-11T16:24:16.808Z,21.08
2019-05-11T16:25:19.213Z,20.94
2019-05-11T16:26:17.574Z,20.90
2019-05-11T16:27:18.302Z,20.95
2019-05-11T16:28:19.245Z,20.94
2019-05-11T16:29:18.980Z,20.94
2019-05-11T16:30:18.400Z,20.90
2019-05-11T16:31:17.943Z,20.92
2019-05-11T16:32:16.710Z,20.88
2019-05-11T16:33:17.969Z,20.95
2019-05-11T16:34:18.477Z,20.94
2019-05-11T16:35:17.943Z,20.95
2019-05-11T16:36:18.014Z,20.86
2019-05-11T16:37:18.456Z,20.85
2019-05-11T16:38:18.749Z,20.94
2019-05-11T16:39:18.629Z,20.89
2019-05-11T16:40:20.264Z,20.82
2019-05-11T16:41:17.863Z,20.82
2019-05-11T16:42:16.596Z,20.82
2019-05-11T16:43:18.935Z,20.86
2019-05-11T16:44:18.451Z,20.79
2019-05-11T16:45:19.068Z,20.86
2019-05-11T16:46:17.767Z,20.76
2019-05-11T16:47:18.133Z,20.82
2019-05-11T16:48:18.465Z,20.83
2019-05-11T16:49:26.193Z,20.85
2019-05-11T16:50:38.511Z,20.85
2019-05-11T16:51:38.877Z,20.78
2019-05-11T16:52:38.772Z,20.83
2019-05-11T16:53:39.067Z,20.86
2019-05-11T16:54:38.830Z,20.82
2019-05-11T16:55:38.222Z,20.80
2019-05-11T16:56:38.503Z,20.85
2019-05-11T16:57:38.343Z,20.83
2019-05-11T16:58:41.099Z,20.90
2019-05-11T16:59:39.878Z,20.90
2019-05-11T17:00:39.346Z,20.90
2019-05-11T17:01:38.219Z,20.85
2019-05-11T17:02:38.381Z,20.85
2019-05-11T17:03:38.547Z,20.86
2019-05-11T17:04:39.834Z,20.85
2019-05-11T17:05:38.408Z,20.83
2019-05-11T17:06:38.665Z,20.89
2019-05-11T17:07:38.087Z,20.92
2019-05-11T17:08:38.485Z,20.92
2019-05-11T17:09:38.065Z,20.92
2019-05-11T17:10:38.046Z,20.94
2019-05-11T17:11:38.426Z,20.90
2019-05-11T17:12:38.626Z,20.90
2019-05-11T17:13:38.204Z,20.98
2019-05-11T17:14:38.002Z,20.97
2019-05-11T17:15:37.998Z,21.00
2019-05-11T17:16:38.798Z,20.97
2019-05-11T17:17:37.986Z,20.95
2019-05-11T17:18:37.982Z,20.94
2019-05-11T17:19:45.279Z,20.94
2019-05-11T17:20:59.771Z,20.95
2019-05-11T17:21:59.746Z,20.88
2019-05-11T17:22:59.747Z,20.97
2019-05-11T17:23:59.752Z,20.94
2019-05-11T17:24:59.727Z,20.98
2019-05-11T17:25:59.710Z,20.88
2019-05-11T17:26:59.713Z,20.90
2019-05-11T17:27:59.682Z,20.89
2019-05-11T17:28:59.682Z,20.90
2019-05-11T17:29:59.665Z,20.80
2019-05-11T17:31:02.813Z,20.76
2019-05-11T17:31:59.640Z,20.82
2019-05-11T17:32:59.647Z,20.73
2019-05-11T17:33:59.621Z,20.80
2019-05-11T17:34:59.604Z,20.79
2019-05-11T17:35:59.595Z,20.71
2019-05-11T17:37:00.156Z,20.64
2019-05-11T17:37:59.572Z,20.68
2019-05-11T17:38:59.565Z,20.60
2019-05-11T17:39:59.548Z,20.68
2019-05-11T17:40:59.542Z,20.60
2019-05-11T17:41:59.523Z,20.64
2019-05-11T17:42:59.519Z,20.60
2019-05-11T17:43:59.502Z,20.63
2019-05-11T17:44:59.497Z,20.61
2019-05-11T17:45:59.482Z,20.61
2019-05-11T17:46:59.475Z,20.61
2019-05-11T17:47:59.454Z,20.70
2019-05-11T17:48:59.451Z,20.58
2019-05-11T17:50:03.472Z,20.61
2019-05-11T17:50:59.437Z,20.53
2019-05-11T17:51:59.415Z,20.57
2019-05-11T17:52:59.407Z,20.43
2019-05-11T17:53:59.783Z,20.53
2019-05-11T17:54:59.421Z,20.46
2019-05-11T17:55:59.370Z,20.57
2019-05-11T17:56:59.396Z,20.55
2019-05-11T17:57:59.347Z,20.48
2019-05-11T17:58:59.380Z,20.46
2019-05-11T18:00:02.139Z,20.52
2019-05-11T18:00:59.312Z,20.55
2019-05-11T18:01:59.300Z,20.61
2019-05-11T18:02:59.299Z,20.58
2019-05-11T18:03:59.280Z,20.68
2019-05-11T18:04:59.263Z,20.60
2019-05-11T18:05:59.261Z,20.58
2019-05-11T18:06:59.253Z,20.65
2019-05-11T18:07:59.231Z,20.60
2019-05-11T18:08:59.221Z,20.58
2019-05-11T18:09:59.216Z,20.61
2019-05-11T18:11:59.188Z,20.57
2019-05-11T18:12:59.180Z,20.63
2019-05-11T18:13:59.165Z,20.61
2019-05-11T18:14:59.159Z,20.55
2019-05-11T18:15:59.150Z,20.60
2019-05-11T18:16:59.151Z,20.58
2019-05-11T18:17:59.131Z,20.55
2019-05-11T18:18:59.127Z,20.45
2019-05-11T18:20:12.602Z,20.50
2019-05-11T18:21:24.206Z,20.50
2019-05-11T18:22:24.189Z,20.48
2019-05-11T18:23:24.189Z,20.49
2019-05-11T18:24:24.172Z,20.48
2019-05-11T18:25:24.170Z,20.58
2019-05-11T18:27:24.134Z,20.52
2019-05-11T18:28:24.114Z,20.48
2019-05-11T18:29:24.110Z,20.49
2019-05-11T18:30:24.117Z,20.53
2019-05-11T18:31:24.090Z,20.55
2019-05-11T18:32:24.080Z,20.46
2019-05-11T18:33:24.065Z,20.45
2019-05-11T18:34:24.052Z,20.46
2019-05-11T18:35:24.058Z,20.43
2019-05-11T18:36:24.033Z,20.48
2019-05-11T18:37:24.022Z,20.42
2019-05-11T18:38:24.031Z,20.42
2019-05-11T18:39:24.003Z,20.45
2019-05-11T18:40:23.983Z,20.43
2019-05-11T18:41:23.988Z,20.46
2019-05-11T18:42:23.982Z,20.43
2019-05-11T18:44:23.944Z,20.46
2019-05-11T18:45:23.933Z,20.45
2019-05-11T18:47:23.910Z,20.43
2019-05-11T18:48:23.945Z,20.46
2019-05-11T18:49:23.902Z,20.33
2019-05-11T18:51:45.546Z,20.43
2019-05-11T18:52:45.530Z,20.48
2019-05-11T18:53:45.522Z,20.42
2019-05-11T19:20:47.036Z,20.27
